OAL017 LGST-LGAV
Flight info
| Callsign | OAL017 |
|---|---|
| Flight time | 0h 42m |
| Altitude | 26000 |
| Route | XAVIS UL617 SOREV |
| Aircraft | B737/M-SDE2E3FGHIRWXY/LB1 |
Departure
| Time | 2026-04-20 20:46 |
|---|---|
| Airport | Sitia Airport (LGST) |
Arrival
| Time | 2026-04-20 21:28 |
|---|---|
| Airport | Athens Eleftherios Venizelos International Airport (LGAV) |
| Time | Latitude | Longitude | Altitude | Speed | Heading |
|---|---|---|---|---|---|
| 2026-04-20 20:40 | 35.21603 | 26.09786 | 363 ft | 0 kts | 91° |
| 2026-04-20 20:42 | 35.21603 | 26.09815 | 362 ft | 4 kts | 91° |
| 2026-04-20 20:42 | 35.21602 | 26.09856 | 366 ft | 5 kts | 91° |
| 2026-04-20 20:42 | 35.21603 | 26.09903 | 362 ft | 7 kts | 87° |
| 2026-04-20 20:42 | 35.21609 | 26.10054 | 355 ft | 29 kts | 86° |
| 2026-04-20 20:43 | 35.21734 | 26.10292 | 353 ft | 24 kts | 50° |
| 2026-04-20 20:43 | 35.21882 | 26.10511 | 345 ft | 43 kts | 50° |
| 2026-04-20 20:43 | 35.22078 | 26.10812 | 325 ft | 39 kts | 55° |
| 2026-04-20 20:43 | 35.22153 | 26.10989 | 323 ft | 11 kts | 64° |
| 2026-04-20 20:44 | 35.22154 | 26.10992 | 323 ft | 0 kts | 64° |
| 2026-04-20 20:44 | 35.22160 | 26.11005 | 321 ft | 6 kts | 57° |
| 2026-04-20 20:44 | 35.22199 | 26.11002 | 321 ft | 7 kts | 299° |
| 2026-04-20 20:45 | 35.22193 | 26.10976 | 323 ft | 0 kts | 229° |
| 2026-04-20 20:45 | 35.22176 | 26.10952 | 320 ft | 26 kts | 229° |
| 2026-04-20 20:45 | 35.21853 | 26.10489 | 353 ft | 114 kts | 229° |
| 2026-04-20 20:45 | 35.21196 | 26.09532 | 574 ft | 163 kts | 233° |
| 2026-04-20 20:46 | 35.20536 | 26.08395 | 1468 ft | 168 kts | 248° |
| 2026-04-20 20:46 | 35.20125 | 26.07064 | 2506 ft | 167 kts | 267° |
| 2026-04-20 20:46 | 35.20172 | 26.05608 | 3185 ft | 186 kts | 285° |
| 2026-04-20 20:46 | 35.20616 | 26.04001 | 3468 ft | 215 kts | 301° |
| 2026-04-20 20:47 | 35.21574 | 26.02476 | 3916 ft | 238 kts | 320° |
| 2026-04-20 20:47 | 35.23002 | 26.01409 | 4900 ft | 245 kts | 338° |
| 2026-04-20 20:47 | 35.24687 | 26.01018 | 5947 ft | 251 kts | 359° |
| 2026-04-20 20:47 | 35.26443 | 26.01084 | 6998 ft | 254 kts | 1° |
| 2026-04-20 20:48 | 35.28227 | 26.01183 | 7922 ft | 260 kts | 359° |
| 2026-04-20 20:48 | 35.30003 | 26.00738 | 8836 ft | 264 kts | 336° |
| 2026-04-20 20:48 | 35.31582 | 25.99542 | 9763 ft | 271 kts | 321° |
| 2026-04-20 20:48 | 35.33020 | 25.98013 | 10587 ft | 280 kts | 319° |
| 2026-04-20 20:49 | 35.34534 | 25.96331 | 10834 ft | 308 kts | 318° |
| 2026-04-20 20:49 | 35.36177 | 25.94493 | 11212 ft | 329 kts | 318° |
| 2026-04-20 20:49 | 35.37893 | 25.92578 | 11974 ft | 336 kts | 318° |
| 2026-04-20 20:49 | 35.39635 | 25.90644 | 12886 ft | 339 kts | 317° |
| 2026-04-20 20:50 | 35.41399 | 25.88694 | 13805 ft | 344 kts | 317° |
| 2026-04-20 20:50 | 35.43188 | 25.86721 | 14632 ft | 348 kts | 317° |
| 2026-04-20 20:50 | 35.44994 | 25.84734 | 15536 ft | 350 kts | 317° |
| 2026-04-20 20:50 | 35.46812 | 25.82734 | 16454 ft | 352 kts | 317° |
| 2026-04-20 20:51 | 35.48645 | 25.80718 | 17334 ft | 356 kts | 317° |
| 2026-04-20 20:51 | 35.50495 | 25.78683 | 18203 ft | 359 kts | 317° |
| 2026-04-20 20:51 | 35.52368 | 25.76621 | 18965 ft | 363 kts | 317° |
| 2026-04-20 20:51 | 35.54255 | 25.74543 | 19714 ft | 366 kts | 317° |
| 2026-04-20 20:52 | 35.56158 | 25.72446 | 20459 ft | 369 kts | 317° |
| 2026-04-20 20:52 | 35.58073 | 25.70333 | 21185 ft | 373 kts | 317° |
| 2026-04-20 20:52 | 35.60012 | 25.68194 | 21899 ft | 376 kts | 317° |
| 2026-04-20 20:52 | 35.61967 | 25.66034 | 22606 ft | 380 kts | 317° |
| 2026-04-20 20:53 | 35.63938 | 25.63856 | 23291 ft | 383 kts | 317° |
| 2026-04-20 20:53 | 35.65929 | 25.61655 | 23925 ft | 386 kts | 316° |
| 2026-04-20 20:53 | 35.67934 | 25.59437 | 24515 ft | 388 kts | 316° |
| 2026-04-20 20:53 | 35.69914 | 25.57257 | 25218 ft | 387 kts | 317° |
| 2026-04-20 20:54 | 35.71983 | 25.55134 | 25762 ft | 387 kts | 319° |
| 2026-04-20 20:54 | 35.74084 | 25.53073 | 26049 ft | 386 kts | 320° |
| 2026-04-20 20:54 | 35.76190 | 25.51028 | 26057 ft | 384 kts | 320° |
| 2026-04-20 20:54 | 35.78282 | 25.48990 | 26069 ft | 383 kts | 320° |
| 2026-04-20 20:55 | 35.80364 | 25.46947 | 26076 ft | 383 kts | 319° |
| 2026-04-20 20:55 | 35.82441 | 25.44895 | 26078 ft | 383 kts | 319° |
| 2026-04-20 20:55 | 35.84518 | 25.42838 | 26092 ft | 383 kts | 319° |
| 2026-04-20 20:55 | 35.86593 | 25.40776 | 26079 ft | 384 kts | 319° |
| 2026-04-20 20:56 | 35.88672 | 25.38710 | 26080 ft | 384 kts | 319° |
| 2026-04-20 20:56 | 35.90750 | 25.36644 | 26077 ft | 384 kts | 319° |
| 2026-04-20 20:56 | 35.92831 | 25.34575 | 26074 ft | 384 kts | 319° |
| 2026-04-20 20:56 | 35.94909 | 25.32507 | 26073 ft | 384 kts | 319° |
| 2026-04-20 20:57 | 35.96984 | 25.30442 | 26076 ft | 383 kts | 319° |
| 2026-04-20 20:57 | 35.99058 | 25.28377 | 26072 ft | 383 kts | 319° |
| 2026-04-20 20:57 | 36.01126 | 25.26315 | 26075 ft | 382 kts | 319° |
| 2026-04-20 20:57 | 36.03195 | 25.24252 | 26076 ft | 382 kts | 319° |
| 2026-04-20 20:58 | 36.05258 | 25.22192 | 26076 ft | 381 kts | 319° |
| 2026-04-20 20:58 | 36.07319 | 25.20133 | 26076 ft | 381 kts | 319° |
| 2026-04-20 20:58 | 36.09381 | 25.18071 | 26076 ft | 381 kts | 319° |
| 2026-04-20 20:58 | 36.11443 | 25.16008 | 26077 ft | 381 kts | 319° |
| 2026-04-20 20:59 | 36.13502 | 25.13947 | 26070 ft | 381 kts | 319° |
| 2026-04-20 20:59 | 36.15558 | 25.11887 | 26084 ft | 381 kts | 319° |
| 2026-04-20 20:59 | 36.17618 | 25.09821 | 26074 ft | 381 kts | 319° |
| 2026-04-20 20:59 | 36.19679 | 25.07753 | 26073 ft | 381 kts | 319° |
| 2026-04-20 21:00 | 36.21742 | 25.05682 | 26074 ft | 382 kts | 319° |
| 2026-04-20 21:00 | 36.23803 | 25.03612 | 26074 ft | 382 kts | 319° |
| 2026-04-20 21:00 | 36.25864 | 25.01539 | 26076 ft | 382 kts | 319° |
| 2026-04-20 21:00 | 36.27926 | 24.99465 | 26067 ft | 381 kts | 319° |
| 2026-04-20 21:01 | 36.29963 | 24.97414 | 26073 ft | 381 kts | 319° |
| 2026-04-20 21:01 | 36.32020 | 24.95341 | 26074 ft | 381 kts | 319° |
| 2026-04-20 21:01 | 36.34074 | 24.93271 | 26073 ft | 381 kts | 319° |
| 2026-04-20 21:01 | 36.36131 | 24.91195 | 26073 ft | 381 kts | 319° |
| 2026-04-20 21:02 | 36.38184 | 24.89122 | 26071 ft | 381 kts | 319° |
| 2026-04-20 21:02 | 36.40236 | 24.87049 | 26071 ft | 381 kts | 319° |
| 2026-04-20 21:02 | 36.42288 | 24.84974 | 26071 ft | 380 kts | 319° |
| 2026-04-20 21:02 | 36.44342 | 24.82896 | 26083 ft | 381 kts | 319° |
| 2026-04-20 21:03 | 36.46394 | 24.80818 | 26076 ft | 381 kts | 319° |
| 2026-04-20 21:03 | 36.48447 | 24.78738 | 26072 ft | 381 kts | 319° |
| 2026-04-20 21:03 | 36.50504 | 24.76651 | 26071 ft | 381 kts | 319° |
| 2026-04-20 21:03 | 36.52554 | 24.74572 | 26070 ft | 381 kts | 319° |
| 2026-04-20 21:04 | 36.54607 | 24.72487 | 26068 ft | 381 kts | 319° |
| 2026-04-20 21:04 | 36.56658 | 24.70403 | 26068 ft | 381 kts | 319° |
| 2026-04-20 21:04 | 36.58707 | 24.68320 | 26069 ft | 381 kts | 319° |
| 2026-04-20 21:04 | 36.60756 | 24.66234 | 26069 ft | 381 kts | 319° |
| 2026-04-20 21:05 | 36.62808 | 24.64144 | 26066 ft | 381 kts | 319° |
| 2026-04-20 21:05 | 36.64856 | 24.62057 | 26069 ft | 381 kts | 319° |
| 2026-04-20 21:05 | 36.66905 | 24.59967 | 26069 ft | 381 kts | 319° |
| 2026-04-20 21:05 | 36.68956 | 24.57874 | 26066 ft | 381 kts | 319° |
| 2026-04-20 21:06 | 36.71006 | 24.55782 | 26070 ft | 381 kts | 319° |
| 2026-04-20 21:06 | 36.73108 | 24.53772 | 26070 ft | 382 kts | 325° |
| 2026-04-20 21:06 | 36.75451 | 24.52187 | 26080 ft | 385 kts | 332° |
| 2026-04-20 21:06 | 36.77963 | 24.50992 | 26070 ft | 388 kts | 341° |
| 2026-04-20 21:07 | 36.80599 | 24.50216 | 26074 ft | 390 kts | 344° |
| 2026-04-20 21:07 | 36.83253 | 24.49517 | 26064 ft | 390 kts | 344° |
| 2026-04-20 21:07 | 36.85908 | 24.48832 | 26065 ft | 390 kts | 344° |
| 2026-04-20 21:07 | 36.88560 | 24.48140 | 26064 ft | 389 kts | 344° |
| 2026-04-20 21:08 | 36.91206 | 24.47437 | 26065 ft | 389 kts | 344° |
| 2026-04-20 21:08 | 36.93852 | 24.46725 | 26065 ft | 389 kts | 344° |
| 2026-04-20 21:08 | 36.96497 | 24.46007 | 26082 ft | 389 kts | 344° |
| 2026-04-20 21:08 | 36.99139 | 24.45286 | 26075 ft | 388 kts | 344° |
| 2026-04-20 21:09 | 37.01741 | 24.44578 | 25861 ft | 380 kts | 343° |
| 2026-04-20 21:09 | 37.04306 | 24.43878 | 25482 ft | 375 kts | 343° |
| 2026-04-20 21:09 | 37.06844 | 24.43184 | 25004 ft | 370 kts | 344° |
| 2026-04-20 21:09 | 37.09346 | 24.42501 | 24493 ft | 366 kts | 344° |
| 2026-04-20 21:10 | 37.11791 | 24.41835 | 24010 ft | 363 kts | 344° |
| 2026-04-20 21:10 | 37.14247 | 24.41170 | 23478 ft | 360 kts | 344° |
| 2026-04-20 21:10 | 37.16690 | 24.40509 | 22899 ft | 357 kts | 344° |
| 2026-04-20 21:10 | 37.19102 | 24.39856 | 22384 ft | 353 kts | 344° |
| 2026-04-20 21:11 | 37.21486 | 24.39211 | 21893 ft | 349 kts | 344° |
| 2026-04-20 21:11 | 37.23845 | 24.38571 | 21380 ft | 345 kts | 344° |
| 2026-04-20 21:11 | 37.26180 | 24.37936 | 20887 ft | 341 kts | 344° |
| 2026-04-20 21:11 | 37.28490 | 24.37308 | 20417 ft | 338 kts | 345° |
| 2026-04-20 21:12 | 37.30779 | 24.36685 | 19941 ft | 335 kts | 345° |
| 2026-04-20 21:12 | 37.33051 | 24.36066 | 19468 ft | 333 kts | 345° |
| 2026-04-20 21:12 | 37.35304 | 24.35452 | 19002 ft | 330 kts | 345° |
| 2026-04-20 21:12 | 37.37538 | 24.34842 | 18538 ft | 328 kts | 345° |
| 2026-04-20 21:13 | 37.39762 | 24.34235 | 18028 ft | 326 kts | 345° |
| 2026-04-20 21:13 | 37.41967 | 24.33633 | 17516 ft | 323 kts | 345° |
| 2026-04-20 21:13 | 37.44158 | 24.33035 | 17028 ft | 321 kts | 345° |
| 2026-04-20 21:13 | 37.46327 | 24.32442 | 16558 ft | 318 kts | 345° |
| 2026-04-20 21:14 | 37.48480 | 24.31853 | 16100 ft | 315 kts | 345° |
| 2026-04-20 21:14 | 37.50613 | 24.31270 | 15639 ft | 313 kts | 345° |
| 2026-04-20 21:14 | 37.52730 | 24.30690 | 15176 ft | 310 kts | 345° |
| 2026-04-20 21:14 | 37.54832 | 24.30114 | 14727 ft | 308 kts | 346° |
| 2026-04-20 21:15 | 37.56941 | 24.29637 | 14167 ft | 311 kts | 351° |
| 2026-04-20 21:15 | 37.59108 | 24.29380 | 13623 ft | 313 kts | 353° |
| 2026-04-20 21:15 | 37.61281 | 24.29181 | 13087 ft | 312 kts | 353° |
| 2026-04-20 21:15 | 37.63438 | 24.28986 | 12620 ft | 310 kts | 353° |
| 2026-04-20 21:16 | 37.65579 | 24.28782 | 12150 ft | 308 kts | 353° |
| 2026-04-20 21:16 | 37.67707 | 24.28569 | 11696 ft | 305 kts | 353° |
| 2026-04-20 21:16 | 37.69819 | 24.28351 | 11243 ft | 303 kts | 353° |
| 2026-04-20 21:16 | 37.71915 | 24.28129 | 10788 ft | 301 kts | 353° |
| 2026-04-20 21:17 | 37.73970 | 24.27910 | 10423 ft | 297 kts | 353° |
| 2026-04-20 21:17 | 37.76007 | 24.27692 | 10295 ft | 284 kts | 353° |
| 2026-04-20 21:17 | 37.77939 | 24.27484 | 10157 ft | 273 kts | 353° |
| 2026-04-20 21:17 | 37.79770 | 24.27287 | 10024 ft | 263 kts | 353° |
| 2026-04-20 21:18 | 37.81586 | 24.27091 | 9665 ft | 261 kts | 353° |
| 2026-04-20 21:18 | 37.83389 | 24.26896 | 9344 ft | 259 kts | 353° |
| 2026-04-20 21:18 | 37.85179 | 24.26702 | 8977 ft | 258 kts | 353° |
| 2026-04-20 21:18 | 37.86964 | 24.26508 | 8629 ft | 257 kts | 353° |
| 2026-04-20 21:19 | 37.88742 | 24.26316 | 8287 ft | 255 kts | 353° |
| 2026-04-20 21:19 | 37.90508 | 24.26125 | 7959 ft | 254 kts | 353° |
| 2026-04-20 21:19 | 37.92267 | 24.25935 | 7633 ft | 253 kts | 353° |
| 2026-04-20 21:20 | 37.95756 | 24.25557 | 7050 ft | 248 kts | 353° |
| 2026-04-20 21:20 | 37.97444 | 24.25375 | 6940 ft | 239 kts | 353° |
| 2026-04-20 21:20 | 37.99071 | 24.25200 | 6813 ft | 231 kts | 352° |
| 2026-04-20 21:20 | 38.00600 | 24.24728 | 6596 ft | 225 kts | 333° |
| 2026-04-20 21:21 | 38.02012 | 24.23904 | 6357 ft | 224 kts | 334° |
| 2026-04-20 21:21 | 38.03437 | 24.23097 | 6077 ft | 223 kts | 334° |
| 2026-04-20 21:21 | 38.04855 | 24.22305 | 5814 ft | 222 kts | 334° |
| 2026-04-20 21:21 | 38.06233 | 24.21450 | 5534 ft | 219 kts | 323° |
| 2026-04-20 21:22 | 38.07404 | 24.20234 | 5297 ft | 216 kts | 318° |
| 2026-04-20 21:22 | 38.08532 | 24.19025 | 5207 ft | 210 kts | 318° |
| 2026-04-20 21:22 | 38.09561 | 24.17712 | 5068 ft | 213 kts | 298° |
| 2026-04-20 21:22 | 38.09968 | 24.15905 | 4839 ft | 213 kts | 276° |
| 2026-04-20 21:23 | 38.10108 | 24.14038 | 4580 ft | 212 kts | 275° |
| 2026-04-20 21:23 | 38.10241 | 24.12186 | 4317 ft | 210 kts | 275° |
| 2026-04-20 21:23 | 38.10364 | 24.10341 | 4068 ft | 209 kts | 269° |
| 2026-04-20 21:23 | 38.09918 | 24.08640 | 3797 ft | 207 kts | 226° |
| 2026-04-20 21:24 | 38.08769 | 24.07572 | 3619 ft | 204 kts | 214° |
| 2026-04-20 21:24 | 38.07607 | 24.06585 | 3428 ft | 199 kts | 216° |
| 2026-04-20 21:24 | 38.06504 | 24.05571 | 3180 ft | 189 kts | 217° |
| 2026-04-20 21:24 | 38.05494 | 24.04614 | 2926 ft | 178 kts | 218° |
| 2026-04-20 21:25 | 38.04536 | 24.03701 | 2694 ft | 167 kts | 217° |
| 2026-04-20 21:25 | 38.03637 | 24.02842 | 2483 ft | 159 kts | 217° |
| 2026-04-20 21:25 | 38.02754 | 24.01999 | 2260 ft | 156 kts | 217° |
| 2026-04-20 21:25 | 38.01930 | 24.01212 | 2114 ft | 143 kts | 216° |
| 2026-04-20 21:26 | 38.01128 | 24.00448 | 1863 ft | 140 kts | 216° |
| 2026-04-20 21:26 | 38.00378 | 23.99731 | 1695 ft | 136 kts | 216° |
| 2026-04-20 21:26 | 37.99629 | 23.99016 | 1515 ft | 134 kts | 215° |
| 2026-04-20 21:26 | 37.98887 | 23.98309 | 1355 ft | 133 kts | 214° |
| 2026-04-20 21:27 | 37.98380 | 23.97826 | 1225 ft | 135 kts | 215° |
| 2026-04-20 21:27 | 37.97387 | 23.96878 | 998 ft | 136 kts | 215° |
| 2026-04-20 21:27 | 37.96876 | 23.96391 | 864 ft | 136 kts | 215° |
| 2026-04-20 21:27 | 37.96122 | 23.95670 | 691 ft | 141 kts | 214° |
| 2026-04-20 21:28 | 37.95342 | 23.94925 | 514 ft | 140 kts | 216° |
| 2026-04-20 21:28 | 37.94572 | 23.94190 | 322 ft | 136 kts | 216° |
| 2026-04-20 21:28 | 37.93934 | 23.93595 | 294 ft | 55 kts | 217° |
| 2026-04-20 21:28 | 37.93753 | 23.93420 | 291 ft | 25 kts | 217° |
| 2026-04-20 21:29 | 37.93651 | 23.93445 | 295 ft | 13 kts | 145° |
| 2026-04-20 21:29 | 37.93576 | 23.93504 | 297 ft | 13 kts | 167° |
| 2026-04-20 21:29 | 37.93489 | 23.93518 | 299 ft | 12 kts | 172° |
| 2026-04-20 21:29 | 37.93404 | 23.93532 | 301 ft | 12 kts | 172° |
| 2026-04-20 21:30 | 37.93342 | 23.93596 | 300 ft | 12 kts | 128° |
| 2026-04-20 21:30 | 37.93292 | 23.93677 | 302 ft | 11 kts | 128° |
| 2026-04-20 21:30 | 37.93227 | 23.93782 | 300 ft | 17 kts | 128° |
| 2026-04-20 21:30 | 37.93154 | 23.93900 | 300 ft | 14 kts | 128° |
| 2026-04-20 21:31 | 37.93087 | 23.94013 | 301 ft | 18 kts | 127° |
| 2026-04-20 21:31 | 37.93034 | 23.94101 | 302 ft | 13 kts | 127° |
| 2026-04-20 21:31 | 37.92985 | 23.94183 | 301 ft | 9 kts | 127° |
| 2026-04-20 21:31 | 37.92944 | 23.94252 | 300 ft | 12 kts | 127° |
| 2026-04-20 21:32 | 37.92897 | 23.94338 | 302 ft | 13 kts | 119° |
| 2026-04-20 21:32 | 37.92928 | 23.94445 | 302 ft | 15 kts | 45° |
| 2026-04-20 21:32 | 37.93022 | 23.94539 | 300 ft | 20 kts | 36° |
| 2026-04-20 21:32 | 37.93157 | 23.94592 | 302 ft | 21 kts | 360° |
| 2026-04-20 21:33 | 37.93256 | 23.94631 | 301 ft | 17 kts | 36° |
| 2026-04-20 21:33 | 37.93330 | 23.94703 | 300 ft | 10 kts | 39° |
| 2026-04-20 21:33 | 37.93399 | 23.94773 | 303 ft | 15 kts | 38° |
| 2026-04-20 21:33 | 37.93452 | 23.94822 | 301 ft | 11 kts | 35° |
| 2026-04-20 21:34 | 37.93500 | 23.94865 | 300 ft | 10 kts | 34° |
| 2026-04-20 21:34 | 37.93557 | 23.94917 | 302 ft | 5 kts | 38° |
| 2026-04-20 21:34 | 37.93599 | 23.94958 | 300 ft | 10 kts | 38° |
| 2026-04-20 21:34 | 37.93669 | 23.95027 | 300 ft | 15 kts | 38° |
| 2026-04-20 21:35 | 37.93717 | 23.95073 | 300 ft | 2 kts | 36° |
| 2026-04-20 21:35 | 37.93745 | 23.95099 | 302 ft | 8 kts | 36° |
| 2026-04-20 21:35 | 37.93803 | 23.95152 | 299 ft | 13 kts | 36° |
| 2026-04-20 21:35 | 37.93810 | 23.95158 | 299 ft | 0 kts | 36° |